sensor_id;sensor_type;location;lat;lon;timestamp;pressure;altitude;pressure_sealevel;temperature;humidity
60583;BME280;46415;47.536;19.066;2023-03-14T00:00:14;99679.34;;;7.61;61.30
60583;BME280;46415;47.536;19.066;2023-03-14T00:03:17;99670.63;;;7.64;61.40
60583;BME280;46415;47.536;19.066;2023-03-14T00:06:20;99672.13;;;7.49;61.84
60583;BME280;46415;47.536;19.066;2023-03-14T00:09:24;99660.81;;;7.52;61.87
60583;BME280;46415;47.536;19.066;2023-03-14T00:12:26;99660.50;;;7.59;61.41
60583;BME280;46415;47.536;19.066;2023-03-14T00:15:29;99656.22;;;7.78;61.03
60583;BME280;46415;47.536;19.066;2023-03-14T00:18:32;99657.37;;;7.71;60.99
60583;BME280;46415;47.536;19.066;2023-03-14T00:21:35;99641.88;;;7.71;60.71
60583;BME280;46415;47.536;19.066;2023-03-14T00:24:38;99642.63;;;7.55;61.66
60583;BME280;46415;47.536;19.066;2023-03-14T00:27:41;99637.94;;;7.44;62.32
60583;BME280;46415;47.536;19.066;2023-03-14T00:30:45;99630.56;;;7.35;62.90
60583;BME280;46415;47.536;19.066;2023-03-14T00:33:47;99625.66;;;7.29;63.65
60583;BME280;46415;47.536;19.066;2023-03-14T00:36:50;99622.56;;;7.21;64.23
60583;BME280;46415;47.536;19.066;2023-03-14T00:39:53;99606.03;;;7.25;64.58
60583;BME280;46415;47.536;19.066;2023-03-14T00:42:56;99605.16;;;7.26;64.37
60583;BME280;46415;47.536;19.066;2023-03-14T00:46:01;99597.78;;;7.17;64.84
60583;BME280;46415;47.536;19.066;2023-03-14T00:49:03;99610.88;;;7.12;65.17
60583;BME280;46415;47.536;19.066;2023-03-14T00:52:06;99613.78;;;7.05;65.91
60583;BME280;46415;47.536;19.066;2023-03-14T00:55:09;99601.84;;;7.02;65.76
60583;BME280;46415;47.536;19.066;2023-03-14T00:58:13;99600.34;;;7.17;65.62
60583;BME280;46415;47.536;19.066;2023-03-14T01:01:18;99597.78;;;7.17;65.90
60583;BME280;46415;47.536;19.066;2023-03-14T01:04:21;99600.16;;;7.21;65.78
60583;BME280;46415;47.536;19.066;2023-03-14T01:07:24;99585.78;;;7.16;65.22
60583;BME280;46415;47.536;19.066;2023-03-14T01:10:27;99583.59;;;7.07;65.59
60583;BME280;46415;47.536;19.066;2023-03-14T01:13:30;99584.63;;;7.03;65.69
60583;BME280;46415;47.536;19.066;2023-03-14T01:16:35;99578.06;;;6.95;66.34
60583;BME280;46415;47.536;19.066;2023-03-14T01:19:38;99582.72;;;6.86;67.35
60583;BME280;46415;47.536;19.066;2023-03-14T01:22:42;99562.81;;;6.89;67.41
60583;BME280;46415;47.536;19.066;2023-03-14T01:25:45;99555.34;;;6.83;68.03
60583;BME280;46415;47.536;19.066;2023-03-14T01:28:49;99555.72;;;6.94;67.12
60583;BME280;46415;47.536;19.066;2023-03-14T01:31:53;99550.94;;;6.85;67.74
60583;BME280;46415;47.536;19.066;2023-03-14T01:34:56;99536.91;;;6.92;67.71
60583;BME280;46415;47.536;19.066;2023-03-14T01:37:59;99532.78;;;6.88;67.31
60583;BME280;46415;47.536;19.066;2023-03-14T01:41:03;99532.84;;;6.87;67.65
60583;BME280;46415;47.536;19.066;2023-03-14T01:44:09;99522.78;;;6.81;67.54
60583;BME280;46415;47.536;19.066;2023-03-14T01:47:12;99526.25;;;6.80;67.90
60583;BME280;46415;47.536;19.066;2023-03-14T01:50:15;99521.41;;;6.92;67.34
60583;BME280;46415;47.536;19.066;2023-03-14T01:53:18;99505.87;;;6.94;67.04
60583;BME280;46415;47.536;19.066;2023-03-14T01:56:24;99504.78;;;7.00;66.97
60583;BME280;46415;47.536;19.066;2023-03-14T01:59:29;99499.63;;;7.00;66.71
60583;BME280;46415;47.536;19.066;2023-03-14T02:02:34;99491.78;;;7.03;66.75
60583;BME280;46415;47.536;19.066;2023-03-14T02:05:39;99497.56;;;6.87;67.43
60583;BME280;46415;47.536;19.066;2023-03-14T02:08:43;99487.97;;;6.71;68.00
60583;BME280;46415;47.536;19.066;2023-03-14T02:11:51;99474.28;;;6.69;68.37
60583;BME280;46415;47.536;19.066;2023-03-14T02:14:57;99466.13;;;6.59;68.67
60583;BME280;46415;47.536;19.066;2023-03-14T02:18:01;99459.59;;;6.50;69.16
60583;BME280;46415;47.536;19.066;2023-03-14T02:21:23;99456.31;;;6.47;69.79
60583;BME280;46415;47.536;19.066;2023-03-14T02:24:40;99449.12;;;6.55;70.13
60583;BME280;46415;47.536;19.066;2023-03-14T02:27:47;99449.22;;;6.52;70.18
60583;BME280;46415;47.536;19.066;2023-03-14T02:30:50;99441.94;;;6.41;70.75
60583;BME280;46415;47.536;19.066;2023-03-14T02:33:54;99440.59;;;6.53;70.54
60583;BME280;46415;47.536;19.066;2023-03-14T02:36:58;99436.06;;;6.38;71.06
60583;BME280;46415;47.536;19.066;2023-03-14T02:40:07;99425.66;;;6.61;70.83
60583;BME280;46415;47.536;19.066;2023-03-14T02:43:10;99421.78;;;6.51;70.65
60583;BME280;46415;47.536;19.066;2023-03-14T02:46:18;99423.13;;;6.60;70.87
60583;BME280;46415;47.536;19.066;2023-03-14T02:49:22;99423.09;;;6.61;71.13
60583;BME280;46415;47.536;19.066;2023-03-14T02:52:25;99425.97;;;6.53;71.40
60583;BME280;46415;47.536;19.066;2023-03-14T02:55:28;99423.06;;;6.41;72.61
60583;BME280;46415;47.536;19.066;2023-03-14T02:58:32;99417.53;;;6.30;73.15
60583;BME280;46415;47.536;19.066;2023-03-14T03:01:36;99412.50;;;6.27;73.44
60583;BME280;46415;47.536;19.066;2023-03-14T03:04:38;99392.72;;;6.27;73.94
60583;BME280;46415;47.536;19.066;2023-03-14T03:07:41;99390.25;;;6.44;74.19
60583;BME280;46415;47.536;19.066;2023-03-14T03:10:44;99400.78;;;6.60;73.35
60583;BME280;46415;47.536;19.066;2023-03-14T03:13:47;99397.88;;;6.86;72.62
60583;BME280;46415;47.536;19.066;2023-03-14T03:16:50;99386.66;;;6.87;71.97
60583;BME280;46415;47.536;19.066;2023-03-14T03:19:53;99410.16;;;6.81;72.60
60583;BME280;46415;47.536;19.066;2023-03-14T03:22:56;99394.94;;;6.75;72.49
60583;BME280;46415;47.536;19.066;2023-03-14T03:25:59;99392.94;;;6.62;73.17
60583;BME280;46415;47.536;19.066;2023-03-14T03:29:03;99391.84;;;6.48;76.11
60583;BME280;46415;47.536;19.066;2023-03-14T03:32:06;99389.00;;;6.34;80.16
60583;BME280;46415;47.536;19.066;2023-03-14T03:35:09;99388.78;;;5.98;86.86
60583;BME280;46415;47.536;19.066;2023-03-14T03:38:12;99385.59;;;5.70;91.74
60583;BME280;46415;47.536;19.066;2023-03-14T03:41:16;99379.53;;;5.49;93.48
60583;BME280;46415;47.536;19.066;2023-03-14T03:44:22;99383.50;;;5.36;94.62
60583;BME280;46415;47.536;19.066;2023-03-14T03:47:27;99375.66;;;5.17;96.00
60583;BME280;46415;47.536;19.066;2023-03-14T03:50:32;99383.87;;;5.04;97.63
60583;BME280;46415;47.536;19.066;2023-03-14T03:53:35;99364.41;;;4.97;96.19
60583;BME280;46415;47.536;19.066;2023-03-14T03:56:40;99366.50;;;4.87;95.67
60583;BME280;46415;47.536;19.066;2023-03-14T03:59:43;99363.19;;;4.83;94.63
60583;BME280;46415;47.536;19.066;2023-03-14T04:02:46;99370.28;;;4.77;95.03
60583;BME280;46415;47.536;19.066;2023-03-14T04:06:03;99362.66;;;4.75;95.66
60583;BME280;46415;47.536;19.066;2023-03-14T04:09:08;99368.19;;;4.88;97.26
60583;BME280;46415;47.536;19.066;2023-03-14T04:12:12;99354.72;;;4.81;97.85
60583;BME280;46415;47.536;19.066;2023-03-14T04:15:16;99343.16;;;4.70;98.20
60583;BME280;46415;47.536;19.066;2023-03-14T04:18:21;99352.97;;;4.59;98.32
60583;BME280;46415;47.536;19.066;2023-03-14T04:21:24;99349.78;;;4.52;98.20
60583;BME280;46415;47.536;19.066;2023-03-14T04:24:28;99364.66;;;4.42;98.94
60583;BME280;46415;47.536;19.066;2023-03-14T04:27:31;99359.00;;;4.33;100.00
60583;BME280;46415;47.536;19.066;2023-03-14T04:30:35;99354.81;;;4.30;100.00
60583;BME280;46415;47.536;19.066;2023-03-14T04:33:39;99344.13;;;4.18;100.00
60583;BME280;46415;47.536;19.066;2023-03-14T04:36:43;99336.56;;;4.13;100.00
60583;BME280;46415;47.536;19.066;2023-03-14T04:39:47;99336.91;;;4.04;100.00
60583;BME280;46415;47.536;19.066;2023-03-14T04:42:50;99336.78;;;4.07;100.00
60583;BME280;46415;47.536;19.066;2023-03-14T04:45:54;99351.97;;;4.13;100.00
60583;BME280;46415;47.536;19.066;2023-03-14T04:48:58;99358.59;;;4.20;100.00
60583;BME280;46415;47.536;19.066;2023-03-14T04:52:01;99363.59;;;4.23;100.00
60583;BME280;46415;47.536;19.066;2023-03-14T04:55:04;99365.62;;;4.15;100.00
60583;BME280;46415;47.536;19.066;2023-03-14T04:58:08;99364.97;;;4.08;100.00
60583;BME280;46415;47.536;19.066;2023-03-14T05:01:11;99371.69;;;4.12;100.00
60583;BME280;46415;47.536;19.066;2023-03-14T05:04:14;99358.91;;;4.11;100.00
60583;BME280;46415;47.536;19.066;2023-03-14T05:07:17;99354.72;;;4.08;100.00
60583;BME280;46415;47.536;19.066;2023-03-14T05:10:21;99355.34;;;4.15;100.00
60583;BME280;46415;47.536;19.066;2023-03-14T05:13:25;99344.91;;;4.20;100.00
60583;BME280;46415;47.536;19.066;2023-03-14T05:16:28;99331.88;;;4.26;100.00
60583;BME280;46415;47.536;19.066;2023-03-14T05:19:31;99335.09;;;4.56;100.00
60583;BME280;46415;47.536;19.066;2023-03-14T05:22:39;99326.59;;;5.00;100.00
60583;BME280;46415;47.536;19.066;2023-03-14T05:25:43;99328.19;;;5.24;98.44
60583;BME280;46415;47.536;19.066;2023-03-14T05:28:47;99320.78;;;5.39;97.48
60583;BME280;46415;47.536;19.066;2023-03-14T05:31:50;99328.63;;;5.57;96.34
60583;BME280;46415;47.536;19.066;2023-03-14T05:34:53;99336.47;;;5.96;93.37
60583;BME280;46415;47.536;19.066;2023-03-14T05:38:00;99331.88;;;6.25;91.36
60583;BME280;46415;47.536;19.066;2023-03-14T05:41:04;99327.19;;;6.53;89.30
60583;BME280;46415;47.536;19.066;2023-03-14T05:44:07;99325.66;;;6.68;88.73
60583;BME280;46415;47.536;19.066;2023-03-14T05:47:11;99320.94;;;6.77;88.53
60583;BME280;46415;47.536;19.066;2023-03-14T05:50:14;99318.66;;;7.09;85.45
60583;BME280;46415;47.536;19.066;2023-03-14T05:53:17;99314.84;;;7.34;84.65
60583;BME280;46415;47.536;19.066;2023-03-14T05:56:22;99308.44;;;7.60;83.42
60583;BME280;46415;47.536;19.066;2023-03-14T05:59:25;99303.88;;;8.00;79.31
60583;BME280;46415;47.536;19.066;2023-03-14T06:02:28;99311.78;;;8.31;78.40
60583;BME280;46415;47.536;19.066;2023-03-14T06:05:31;99315.37;;;8.62;75.41
60583;BME280;46415;47.536;19.066;2023-03-14T06:08:34;99324.28;;;9.05;71.26
60583;BME280;46415;47.536;19.066;2023-03-14T06:11:37;99324.41;;;9.33;70.34
60583;BME280;46415;47.536;19.066;2023-03-14T06:14:40;99330.00;;;9.57;69.53
60583;BME280;46415;47.536;19.066;2023-03-14T06:17:44;99322.75;;;9.77;65.29
60583;BME280;46415;47.536;19.066;2023-03-14T06:20:54;99320.69;;;9.98;62.36
60583;BME280;46415;47.536;19.066;2023-03-14T06:23:58;99318.78;;;10.16;61.15
60583;BME280;46415;47.536;19.066;2023-03-14T06:27:01;99321.31;;;10.32;59.64
60583;BME280;46415;47.536;19.066;2023-03-14T06:30:06;99324.13;;;10.29;58.27
60583;BME280;46415;47.536;19.066;2023-03-14T06:33:11;99316.75;;;10.07;58.84
60583;BME280;46415;47.536;19.066;2023-03-14T06:36:14;99326.72;;;10.13;58.77
60583;BME280;46415;47.536;19.066;2023-03-14T06:39:17;99326.09;;;10.09;58.61
60583;BME280;46415;47.536;19.066;2023-03-14T06:42:21;99316.19;;;10.16;58.53
60583;BME280;46415;47.536;19.066;2023-03-14T06:45:25;99325.03;;;10.28;57.98
60583;BME280;46415;47.536;19.066;2023-03-14T06:48:29;99313.19;;;10.23;58.08
60583;BME280;46415;47.536;19.066;2023-03-14T06:51:32;99309.31;;;10.31;57.46
60583;BME280;46415;47.536;19.066;2023-03-14T06:54:37;99310.97;;;10.46;57.25
60583;BME280;46415;47.536;19.066;2023-03-14T06:57:39;99315.03;;;10.50;57.42
60583;BME280;46415;47.536;19.066;2023-03-14T07:00:43;99309.13;;;10.48;57.35
60583;BME280;46415;47.536;19.066;2023-03-14T07:03:46;99310.59;;;10.38;57.79
60583;BME280;46415;47.536;19.066;2023-03-14T07:06:49;99316.34;;;10.43;58.08
60583;BME280;46415;47.536;19.066;2023-03-14T07:09:52;99315.16;;;10.48;57.44
60583;BME280;46415;47.536;19.066;2023-03-14T07:12:56;99315.41;;;10.44;57.78
60583;BME280;46415;47.536;19.066;2023-03-14T07:15:59;99308.78;;;10.54;57.65
60583;BME280;46415;47.536;19.066;2023-03-14T07:19:03;99308.19;;;10.77;57.11
60583;BME280;46415;47.536;19.066;2023-03-14T07:22:06;99312.44;;;10.92;56.71
60583;BME280;46415;47.536;19.066;2023-03-14T07:25:09;99309.53;;;10.97;56.41
60583;BME280;46415;47.536;19.066;2023-03-14T07:28:14;99308.16;;;11.05;56.50
60583;BME280;46415;47.536;19.066;2023-03-14T07:31:18;99312.31;;;11.08;56.18
60583;BME280;46415;47.536;19.066;2023-03-14T07:34:21;99298.97;;;11.00;56.57
60583;BME280;46415;47.536;19.066;2023-03-14T07:37:24;99289.88;;;11.07;56.79
60583;BME280;46415;47.536;19.066;2023-03-14T07:40:29;99290.09;;;11.31;56.09
60583;BME280;46415;47.536;19.066;2023-03-14T07:43:33;99289.00;;;11.48;55.57
60583;BME280;46415;47.536;19.066;2023-03-14T07:46:36;99288.12;;;11.61;55.25
60583;BME280;46415;47.536;19.066;2023-03-14T07:49:39;99279.47;;;12.00;54.48
60583;BME280;46415;47.536;19.066;2023-03-14T07:52:42;99273.97;;;12.17;53.63
60583;BME280;46415;47.536;19.066;2023-03-14T07:55:45;99270.84;;;12.25;53.45
60583;BME280;46415;47.536;19.066;2023-03-14T07:58:48;99267.69;;;12.58;52.72
60583;BME280;46415;47.536;19.066;2023-03-14T08:01:51;99262.31;;;12.48;52.34
60583;BME280;46415;47.536;19.066;2023-03-14T08:04:54;99266.84;;;12.57;53.00
60583;BME280;46415;47.536;19.066;2023-03-14T08:07:57;99265.88;;;12.84;52.02
60583;BME280;46415;47.536;19.066;2023-03-14T08:11:04;99265.50;;;13.01;51.62
60583;BME280;46415;47.536;19.066;2023-03-14T08:14:07;99253.03;;;12.93;51.80
60583;BME280;46415;47.536;19.066;2023-03-14T08:17:10;99252.75;;;12.85;52.57
60583;BME280;46415;47.536;19.066;2023-03-14T08:20:13;99240.06;;;13.17;51.57
60583;BME280;46415;47.536;19.066;2023-03-14T08:23:16;99242.38;;;13.09;51.52
60583;BME280;46415;47.536;19.066;2023-03-14T08:26:20;99230.59;;;13.16;51.53
60583;BME280;46415;47.536;19.066;2023-03-14T08:29:23;99238.28;;;13.41;51.30
60583;BME280;46415;47.536;19.066;2023-03-14T08:32:26;99245.69;;;13.59;50.91
60583;BME280;46415;47.536;19.066;2023-03-14T08:35:29;99237.81;;;13.82;49.97
60583;BME280;46415;47.536;19.066;2023-03-14T08:38:32;99227.66;;;14.02;49.60
60583;BME280;46415;47.536;19.066;2023-03-14T08:41:35;99229.41;;;13.90;49.89
60583;BME280;46415;47.536;19.066;2023-03-14T08:44:43;99226.25;;;13.98;49.90
60583;BME280;46415;47.536;19.066;2023-03-14T08:47:46;99217.38;;;14.22;49.42
60583;BME280;46415;47.536;19.066;2023-03-14T08:50:49;99219.06;;;14.57;49.08
60583;BME280;46415;47.536;19.066;2023-03-14T08:53:52;99210.81;;;14.84;47.79
60583;BME280;46415;47.536;19.066;2023-03-14T08:56:54;99209.41;;;14.80;47.57
60583;BME280;46415;47.536;19.066;2023-03-14T08:59:57;99198.66;;;15.05;47.13
60583;BME280;46415;47.536;19.066;2023-03-14T09:03:00;99176.69;;;15.28;46.79
60583;BME280;46415;47.536;19.066;2023-03-14T09:06:05;99187.09;;;15.39;45.94
60583;BME280;46415;47.536;19.066;2023-03-14T09:09:08;99177.87;;;15.56;45.99
60583;BME280;46415;47.536;19.066;2023-03-14T09:12:11;99184.22;;;15.22;46.16
60583;BME280;46415;47.536;19.066;2023-03-14T09:15:14;99181.03;;;15.18;45.86
60583;BME280;46415;47.536;19.066;2023-03-14T09:18:17;99176.75;;;15.17;45.81
60583;BME280;46415;47.536;19.066;2023-03-14T09:21:23;99178.31;;;15.08;45.78
60583;BME280;46415;47.536;19.066;2023-03-14T09:24:26;99166.03;;;15.20;45.73
60583;BME280;46415;47.536;19.066;2023-03-14T09:27:28;99169.75;;;15.38;45.43
60583;BME280;46415;47.536;19.066;2023-03-14T09:30:32;99151.31;;;15.40;45.75
60583;BME280;46415;47.536;19.066;2023-03-14T09:33:35;99143.41;;;15.51;45.38
60583;BME280;46415;47.536;19.066;2023-03-14T09:36:38;99148.75;;;15.49;45.20
60583;BME280;46415;47.536;19.066;2023-03-14T09:39:43;99136.69;;;15.69;44.82
60583;BME280;46415;47.536;19.066;2023-03-14T09:42:53;99140.09;;;15.90;44.41
60583;BME280;46415;47.536;19.066;2023-03-14T09:45:58;99148.28;;;16.07;44.00
60583;BME280;46415;47.536;19.066;2023-03-14T09:49:20;99146.09;;;16.12;43.93
60583;BME280;46415;47.536;19.066;2023-03-14T09:52:32;99115.78;;;16.09;43.99
60583;BME280;46415;47.536;19.066;2023-03-14T09:55:38;99117.50;;;16.29;43.53
60583;BME280;46415;47.536;19.066;2023-03-14T09:58:42;99107.75;;;16.41;43.87
60583;BME280;46415;47.536;19.066;2023-03-14T10:01:47;99103.16;;;16.73;43.62
60583;BME280;46415;47.536;19.066;2023-03-14T10:04:52;99100.13;;;16.97;43.08
60583;BME280;46415;47.536;19.066;2023-03-14T10:07:55;99091.00;;;17.11;42.53
60583;BME280;46415;47.536;19.066;2023-03-14T10:10:59;99079.94;;;17.36;42.64
60583;BME280;46415;47.536;19.066;2023-03-14T10:14:06;99065.59;;;17.77;41.90
60583;BME280;46415;47.536;19.066;2023-03-14T10:17:12;99064.84;;;17.94;41.22
60583;BME280;46415;47.536;19.066;2023-03-14T10:20:36;99065.03;;;18.38;40.74
60583;BME280;46415;47.536;19.066;2023-03-14T10:23:39;99047.75;;;18.35;40.47
60583;BME280;46415;47.536;19.066;2023-03-14T10:26:42;99024.50;;;18.94;39.79
60583;BME280;46415;47.536;19.066;2023-03-14T10:30:04;99034.00;;;19.38;39.04
60583;BME280;46415;47.536;19.066;2023-03-14T10:33:11;99023.16;;;19.67;37.97
60583;BME280;46415;47.536;19.066;2023-03-14T10:36:19;99020.63;;;19.91;36.52
60583;BME280;46415;47.536;19.066;2023-03-14T10:39:27;99022.97;;;20.03;36.36
60583;BME280;46415;47.536;19.066;2023-03-14T10:42:33;99021.84;;;20.05;35.77
60583;BME280;46415;47.536;19.066;2023-03-14T10:45:39;99027.00;;;19.81;36.30
60583;BME280;46415;47.536;19.066;2023-03-14T10:48:43;99017.81;;;19.85;36.47
60583;BME280;46415;47.536;19.066;2023-03-14T10:51:47;99013.78;;;20.15;36.06
60583;BME280;46415;47.536;19.066;2023-03-14T10:54:58;98999.03;;;20.30;35.99
60583;BME280;46415;47.536;19.066;2023-03-14T10:58:02;99009.63;;;20.54;35.38
60583;BME280;46415;47.536;19.066;2023-03-14T11:07:40;98982.91;;;20.57;35.00
60583;BME280;46415;47.536;19.066;2023-03-14T11:10:45;98973.56;;;20.79;34.62
60583;BME280;46415;47.536;19.066;2023-03-14T11:17:44;98966.78;;;20.60;34.78
60583;BME280;46415;47.536;19.066;2023-03-14T11:21:11;98962.19;;;20.78;34.68
60583;BME280;46415;47.536;19.066;2023-03-14T11:27:44;98942.56;;;20.65;34.69
60583;BME280;46415;47.536;19.066;2023-03-14T11:31:07;98931.69;;;20.52;34.71
60583;BME280;46415;47.536;19.066;2023-03-14T11:34:34;98932.88;;;20.49;35.19
60583;BME280;46415;47.536;19.066;2023-03-14T11:41:11;98898.81;;;21.19;34.38
60583;BME280;46415;47.536;19.066;2023-03-14T11:44:30;98904.91;;;21.03;34.17
60583;BME280;46415;47.536;19.066;2023-03-14T11:47:39;98906.59;;;20.88;34.71
60583;BME280;46415;47.536;19.066;2023-03-14T11:50:48;98897.03;;;20.87;34.45
60583;BME280;46415;47.536;19.066;2023-03-14T11:57:12;98882.00;;;21.04;34.06
60583;BME280;46415;47.536;19.066;2023-03-14T12:00:20;98881.03;;;20.97;34.18
60583;BME280;46415;47.536;19.066;2023-03-14T12:03:39;98864.25;;;20.90;34.41
60583;BME280;46415;47.536;19.066;2023-03-14T12:06:48;98866.28;;;20.39;34.96
60583;BME280;46415;47.536;19.066;2023-03-14T12:09:52;98870.25;;;20.19;35.11
60583;BME280;46415;47.536;19.066;2023-03-14T12:12:56;98877.34;;;20.43;34.96
60583;BME280;46415;47.536;19.066;2023-03-14T12:16:05;98877.12;;;20.68;35.03
60583;BME280;46415;47.536;19.066;2023-03-14T12:19:27;98861.16;;;20.70;34.37
60583;BME280;46415;47.536;19.066;2023-03-14T12:22:41;98865.59;;;20.69;34.09
60583;BME280;46415;47.536;19.066;2023-03-14T12:25:45;98854.78;;;20.40;34.30
60583;BME280;46415;47.536;19.066;2023-03-14T12:35:39;98846.31;;;19.80;34.88
60583;BME280;46415;47.536;19.066;2023-03-14T12:38:53;98835.97;;;20.03;35.25
60583;BME280;46415;47.536;19.066;2023-03-14T12:42:05;98829.22;;;20.08;34.77
60583;BME280;46415;47.536;19.066;2023-03-14T12:48:27;98826.28;;;20.11;35.48
60583;BME280;46415;47.536;19.066;2023-03-14T12:51:42;98813.91;;;20.04;35.65
60583;BME280;46415;47.536;19.066;2023-03-14T12:55:00;98807.16;;;19.85;36.09
60583;BME280;46415;47.536;19.066;2023-03-14T12:58:36;98809.78;;;19.69;36.41
60583;BME280;46415;47.536;19.066;2023-03-14T13:05:09;98803.41;;;19.21;36.59
60583;BME280;46415;47.536;19.066;2023-03-14T13:08:52;98811.06;;;18.98;37.80
60583;BME280;46415;47.536;19.066;2023-03-14T13:12:03;98808.78;;;18.69;39.47
60583;BME280;46415;47.536;19.066;2023-03-14T13:18:35;98800.03;;;18.61;38.72
60583;BME280;46415;47.536;19.066;2023-03-14T13:21:38;98800.50;;;18.56;38.83
60583;BME280;46415;47.536;19.066;2023-03-14T13:24:47;98806.44;;;18.58;38.67
60583;BME280;46415;47.536;19.066;2023-03-14T13:27:52;98804.78;;;18.57;38.78
60583;BME280;46415;47.536;19.066;2023-03-14T13:31:00;98824.06;;;18.48;38.66
60583;BME280;46415;47.536;19.066;2023-03-14T13:34:07;98821.63;;;18.47;38.64
60583;BME280;46415;47.536;19.066;2023-03-14T13:37:30;98821.53;;;18.39;39.03
60583;BME280;46415;47.536;19.066;2023-03-14T13:40:34;98833.63;;;18.31;39.42
60583;BME280;46415;47.536;19.066;2023-03-14T13:43:41;98833.78;;;18.30;39.47
60583;BME280;46415;47.536;19.066;2023-03-14T13:46:45;98829.97;;;18.24;39.81
60583;BME280;46415;47.536;19.066;2023-03-14T13:49:49;98835.37;;;18.41;39.78
60583;BME280;46415;47.536;19.066;2023-03-14T13:52:56;98831.31;;;18.54;39.32
60583;BME280;46415;47.536;19.066;2023-03-14T13:56:03;98828.28;;;18.59;39.05
60583;BME280;46415;47.536;19.066;2023-03-14T13:59:24;98829.75;;;18.61;38.90
60583;BME280;46415;47.536;19.066;2023-03-14T14:02:27;98829.19;;;18.75;38.59
60583;BME280;46415;47.536;19.066;2023-03-14T14:05:31;98835.56;;;18.99;38.55
60583;BME280;46415;47.536;19.066;2023-03-14T14:08:34;98834.47;;;19.17;37.66
60583;BME280;46415;47.536;19.066;2023-03-14T14:11:52;98829.56;;;19.31;37.45
60583;BME280;46415;47.536;19.066;2023-03-14T14:15:20;98831.59;;;19.45;37.36
60583;BME280;46415;47.536;19.066;2023-03-14T14:18:26;98823.03;;;19.43;37.25
60583;BME280;46415;47.536;19.066;2023-03-14T14:21:30;98818.69;;;19.60;36.93
60583;BME280;46415;47.536;19.066;2023-03-14T14:24:36;98817.28;;;19.39;37.07
60583;BME280;46415;47.536;19.066;2023-03-14T14:27:42;98820.69;;;19.32;37.29
60583;BME280;46415;47.536;19.066;2023-03-14T14:31:32;98811.78;;;19.25;37.35
60583;BME280;46415;47.536;19.066;2023-03-14T14:34:28;98810.16;;;19.24;37.06
60583;BME280;46415;47.536;19.066;2023-03-14T14:37:33;98809.34;;;19.23;37.07
60583;BME280;46415;47.536;19.066;2023-03-14T14:40:43;98811.47;;;19.20;36.83
60583;BME280;46415;47.536;19.066;2023-03-14T14:43:47;98805.56;;;19.26;36.67
60583;BME280;46415;47.536;19.066;2023-03-14T14:46:49;98809.69;;;19.28;36.48
60583;BME280;46415;47.536;19.066;2023-03-14T14:49:56;98814.13;;;19.28;36.62
60583;BME280;46415;47.536;19.066;2023-03-14T14:53:03;98809.34;;;19.31;36.78
60583;BME280;46415;47.536;19.066;2023-03-14T14:56:15;98806.03;;;19.21;37.12
60583;BME280;46415;47.536;19.066;2023-03-14T14:59:24;98809.12;;;19.08;37.93
60583;BME280;46415;47.536;19.066;2023-03-14T15:05:33;98806.09;;;18.87;37.71
60583;BME280;46415;47.536;19.066;2023-03-14T15:08:39;98807.62;;;18.72;38.25
60583;BME280;46415;47.536;19.066;2023-03-14T15:11:42;98809.81;;;18.51;38.88
60583;BME280;46415;47.536;19.066;2023-03-14T15:14:44;98803.66;;;18.42;38.89
60583;BME280;46415;47.536;19.066;2023-03-14T15:17:47;98812.19;;;18.18;40.22
60583;BME280;46415;47.536;19.066;2023-03-14T15:20:50;98825.28;;;18.10;40.77
60583;BME280;46415;47.536;19.066;2023-03-14T15:23:54;98830.81;;;18.07;40.87
60583;BME280;46415;47.536;19.066;2023-03-14T15:26:57;98839.03;;;18.04;41.28
60583;BME280;46415;47.536;19.066;2023-03-14T15:29:59;98842.63;;;17.85;41.63
60583;BME280;46415;47.536;19.066;2023-03-14T15:33:03;98843.13;;;17.71;42.14
60583;BME280;46415;47.536;19.066;2023-03-14T15:36:24;98851.22;;;17.60;42.32
60583;BME280;46415;47.536;19.066;2023-03-14T15:39:28;98852.94;;;17.51;42.62
60583;BME280;46415;47.536;19.066;2023-03-14T15:42:31;98848.16;;;17.37;42.83
60583;BME280;46415;47.536;19.066;2023-03-14T15:45:34;98854.28;;;17.28;43.75
60583;BME280;46415;47.536;19.066;2023-03-14T15:48:37;98860.53;;;17.27;43.22
60583;BME280;46415;47.536;19.066;2023-03-14T15:51:41;98890.47;;;17.25;42.54
60583;BME280;46415;47.536;19.066;2023-03-14T15:54:43;98897.38;;;17.16;43.07
60583;BME280;46415;47.536;19.066;2023-03-14T15:57:46;98919.91;;;16.43;55.93
60583;BME280;46415;47.536;19.066;2023-03-14T16:00:50;98917.69;;;16.00;63.00
60583;BME280;46415;47.536;19.066;2023-03-14T16:03:53;98931.31;;;15.44;70.29
60583;BME280;46415;47.536;19.066;2023-03-14T16:06:55;98928.03;;;15.12;74.54
60583;BME280;46415;47.536;19.066;2023-03-14T16:09:58;98937.88;;;14.78;79.30
60583;BME280;46415;47.536;19.066;2023-03-14T16:13:02;98939.28;;;14.41;84.52
60583;BME280;46415;47.536;19.066;2023-03-14T16:16:07;98938.97;;;13.91;91.45
60583;BME280;46415;47.536;19.066;2023-03-14T16:19:10;98931.59;;;13.42;96.32
60583;BME280;46415;47.536;19.066;2023-03-14T16:22:13;98937.75;;;13.19;99.56
60583;BME280;46415;47.536;19.066;2023-03-14T16:25:16;98928.28;;;13.18;99.91
60583;BME280;46415;47.536;19.066;2023-03-14T16:28:21;98929.56;;;13.12;100.00
60583;BME280;46415;47.536;19.066;2023-03-14T16:31:24;98928.63;;;13.13;100.00
60583;BME280;46415;47.536;19.066;2023-03-14T16:34:27;98923.63;;;12.99;100.00
60583;BME280;46415;47.536;19.066;2023-03-14T16:37:30;98922.91;;;12.97;100.00
60583;BME280;46415;47.536;19.066;2023-03-14T16:40:33;98928.72;;;12.89;100.00
60583;BME280;46415;47.536;19.066;2023-03-14T16:43:36;98928.59;;;12.80;100.00
60583;BME280;46415;47.536;19.066;2023-03-14T16:46:39;98942.53;;;12.79;100.00
60583;BME280;46415;47.536;19.066;2023-03-14T16:49:45;98941.72;;;12.78;100.00
60583;BME280;46415;47.536;19.066;2023-03-14T16:52:48;98955.66;;;12.77;100.00